createdAt,value
2019-05-09T00:01:15.859Z,10.40
2019-05-09T00:03:45.933Z,9.53
2019-05-09T00:06:16.030Z,10.20
2019-05-09T00:08:46.096Z,9.50
2019-05-09T00:11:16.201Z,12.77
2019-05-09T00:13:46.265Z,9.33
2019-05-09T00:16:16.365Z,11.00
2019-05-09T00:18:46.449Z,12.37
2019-05-09T00:21:21.304Z,11.77
2019-05-09T00:23:51.377Z,11.23
2019-05-09T00:26:23.564Z,10.60
2019-05-09T00:28:54.852Z,10.53
2019-05-09T00:31:29.709Z,8.70
2019-05-09T00:34:03.940Z,11.10
2019-05-09T00:36:33.501Z,9.50
2019-05-09T00:39:04.200Z,9.97
2019-05-09T00:41:34.551Z,10.67
2019-05-09T00:44:13.856Z,9.57
2019-05-09T00:46:54.591Z,9.90
2019-05-09T00:49:26.375Z,8.50
2019-05-09T00:51:56.420Z,12.37
2019-05-09T00:54:26.504Z,9.70
2019-05-09T00:56:56.560Z,8.90
2019-05-09T00:59:26.665Z,9.30
2019-05-09T01:01:56.717Z,8.63
2019-05-09T01:04:26.820Z,9.63
2019-05-09T01:06:56.869Z,8.67
2019-05-09T01:09:27.968Z,8.27
2019-05-09T01:11:58.213Z,9.53
2019-05-09T01:14:29.658Z,9.80
2019-05-09T01:17:00.325Z,7.53
2019-05-09T01:19:33.725Z,9.80
2019-05-09T01:22:04.949Z,8.33
2019-05-09T01:24:35.067Z,9.60
2019-05-09T01:27:05.145Z,7.83
2019-05-09T01:29:35.247Z,9.53
2019-05-09T01:32:14.396Z,8.93
2019-05-09T01:34:44.673Z,9.23
2019-05-09T01:37:14.745Z,9.83
2019-05-09T01:39:44.778Z,8.73
2019-05-09T01:42:14.846Z,9.23
2019-05-09T01:44:44.896Z,8.83
2019-05-09T01:47:14.977Z,9.17
2019-05-09T01:49:45.028Z,8.83
2019-05-09T01:52:15.117Z,9.60
2019-05-09T01:54:47.323Z,9.87
2019-05-09T01:57:17.435Z,9.23
2019-05-09T01:59:47.481Z,9.30
2019-05-09T02:02:17.571Z,8.97
2019-05-09T02:04:47.614Z,9.13
2019-05-09T02:07:17.709Z,16.70
2019-05-09T02:09:47.741Z,9.60
2019-05-09T02:12:17.848Z,9.83
2019-05-09T02:14:49.468Z,9.93
2019-05-09T02:17:37.275Z,12.67
2019-05-09T02:20:07.813Z,10.37
2019-05-09T02:22:37.919Z,10.50
2019-05-09T02:25:09.822Z,10.10
2019-05-09T02:27:39.927Z,12.27
2019-05-09T02:30:15.277Z,10.20
2019-05-09T02:32:44.999Z,11.67
2019-05-09T02:35:15.713Z,10.07
2019-05-09T02:37:49.518Z,10.33
2019-05-09T02:40:18.733Z,10.83
2019-05-09T02:42:49.425Z,10.20
2019-05-09T02:45:20.229Z,9.80
2019-05-09T02:47:50.335Z,9.80
2019-05-09T02:50:20.425Z,9.67
2019-05-09T02:52:50.535Z,10.50
2019-05-09T02:55:20.680Z,10.23
2019-05-09T02:57:52.367Z,10.43
2019-05-09T03:00:24.794Z,9.87
2019-05-09T03:03:02.396Z,10.10
2019-05-09T03:05:32.468Z,10.30
2019-05-09T03:08:02.579Z,10.10
2019-05-09T03:10:32.645Z,9.57
2019-05-09T03:13:02.757Z,9.17
2019-05-09T03:15:34.610Z,9.93
2019-05-09T03:18:04.713Z,10.37
2019-05-09T03:20:39.437Z,9.67
2019-05-09T03:23:09.754Z,9.80
2019-05-09T03:25:40.778Z,13.97
2019-05-09T03:28:28.213Z,11.87
2019-05-09T03:30:59.392Z,11.83
2019-05-09T03:33:35.285Z,11.93
2019-05-09T03:36:01.462Z,12.20
2019-05-09T03:38:31.580Z,121.67
2019-05-09T03:41:01.671Z,28.70
2019-05-09T03:43:31.790Z,41.77
2019-05-09T03:46:03.430Z,35.43
2019-05-09T03:48:36.883Z,16.77
2019-05-09T03:51:08.129Z,14.93
2019-05-09T03:53:38.374Z,14.53
2019-05-09T03:56:10.008Z,14.07
2019-05-09T03:58:40.099Z,13.17
2019-05-09T04:01:10.785Z,19.83
2019-05-09T04:03:41.259Z,32.13
2019-05-09T04:06:11.329Z,17.17
2019-05-09T04:08:41.422Z,33.60
2019-05-09T04:11:11.509Z,34.23
2019-05-09T04:13:43.177Z,18.20
2019-05-09T04:16:13.267Z,13.17
2019-05-09T04:18:43.387Z,36.87
2019-05-09T04:21:13.468Z,21.27
2019-05-09T04:23:43.565Z,12.90
2019-05-09T04:26:21.092Z,11.97
2019-05-09T04:28:51.198Z,14.37
2019-05-09T04:31:21.281Z,15.10
2019-05-09T04:33:51.331Z,12.30
2019-05-09T04:36:22.969Z,12.70
2019-05-09T04:38:53.045Z,10.30
2019-05-09T04:41:24.210Z,10.87
2019-05-09T04:43:57.361Z,10.57
2019-05-09T04:46:27.733Z,10.63
2019-05-09T04:49:00.959Z,11.43
2019-05-09T04:51:29.790Z,11.83
2019-05-09T04:54:00.870Z,10.77
2019-05-09T04:56:32.520Z,10.33
2019-05-09T04:59:02.604Z,10.30
2019-05-09T05:01:40.266Z,14.97
2019-05-09T05:04:10.347Z,10.73
2019-05-09T05:06:40.661Z,10.87
2019-05-09T05:09:10.734Z,11.33
2019-05-09T05:11:40.848Z,11.80
2019-05-09T05:14:12.492Z,16.73
2019-05-09T05:16:42.603Z,12.77
2019-05-09T05:19:12.671Z,16.50
2019-05-09T05:21:42.766Z,11.60
2019-05-09T05:24:27.747Z,10.27
2019-05-09T05:26:57.965Z,12.47
2019-05-09T05:29:28.353Z,20.07
2019-05-09T05:32:00.029Z,14.23
2019-05-09T05:34:31.683Z,10.40
2019-05-09T05:37:01.829Z,11.77
2019-05-09T05:39:31.903Z,11.40
2019-05-09T05:42:02.389Z,10.60
2019-05-09T05:44:32.468Z,10.20
2019-05-09T05:47:20.908Z,10.13
2019-05-09T05:49:50.972Z,10.90
2019-05-09T05:52:21.078Z,9.87
2019-05-09T05:54:51.157Z,10.20
2019-05-09T05:57:21.275Z,10.17
2019-05-09T05:59:51.375Z,10.40
2019-05-09T06:02:21.466Z,11.63
2019-05-09T06:04:51.551Z,12.07
2019-05-09T06:07:21.655Z,11.30
2019-05-09T06:09:51.741Z,11.53
2019-05-09T06:12:21.839Z,10.47
2019-05-09T06:14:51.928Z,13.23
2019-05-09T06:17:22.026Z,11.77
2019-05-09T06:19:52.115Z,10.43
2019-05-09T06:22:22.223Z,11.10
2019-05-09T06:24:52.307Z,11.57
2019-05-09T06:27:22.427Z,10.00
2019-05-09T06:29:52.472Z,12.03
2019-05-09T06:32:22.568Z,13.57
2019-05-09T06:34:52.612Z,14.03
2019-05-09T06:37:22.725Z,14.10
2019-05-09T06:39:52.762Z,13.73
2019-05-09T06:42:25.396Z,12.23
2019-05-09T06:45:12.621Z,20.27
2019-05-09T06:47:44.285Z,14.63
2019-05-09T06:50:15.907Z,19.83
2019-05-09T06:52:47.935Z,17.30
2019-05-09T06:55:17.741Z,12.67
2019-05-09T06:57:48.873Z,13.50
2019-05-09T07:00:37.754Z,13.00
2019-05-09T07:03:18.491Z,12.77
2019-05-09T07:05:53.196Z,15.70
2019-05-09T07:08:33.888Z,23.00
2019-05-09T07:11:03.977Z,15.80
2019-05-09T07:13:34.053Z,17.00
2019-05-09T07:16:04.119Z,17.67
2019-05-09T07:18:34.185Z,15.63
2019-05-09T07:21:04.274Z,14.30
2019-05-09T07:23:34.350Z,16.40
2019-05-09T07:26:17.478Z,14.80
2019-05-09T07:28:48.352Z,16.67
2019-05-09T07:31:37.746Z,18.37
2019-05-09T07:34:14.916Z,20.53
2019-05-09T07:36:47.466Z,33.13
2019-05-09T07:39:17.585Z,89.50
2019-05-09T07:41:48.006Z,33.87
2019-05-09T07:44:18.404Z,124.43
2019-05-09T07:47:02.095Z,220.13
2019-05-09T07:49:37.578Z,160.93
2019-05-09T07:52:10.297Z,279.43
2019-05-09T07:54:38.771Z,123.37
2019-05-09T07:57:08.956Z,32.83
2019-05-09T07:59:39.098Z,19.20
2019-05-09T08:02:09.160Z,12.23
2019-05-09T08:04:39.247Z,15.93
2019-05-09T08:07:09.319Z,17.23
2019-05-09T08:09:39.403Z,14.27
2019-05-09T08:12:09.465Z,17.30
2019-05-09T08:14:39.538Z,21.40
2019-05-09T08:17:10.109Z,20.93
2019-05-09T08:19:40.181Z,13.07
2019-05-09T08:22:10.289Z,17.17
2019-05-09T08:24:40.428Z,17.17
2019-05-09T08:27:10.466Z,26.33
2019-05-09T08:29:40.542Z,18.07
2019-05-09T08:32:10.609Z,15.47
2019-05-09T08:34:40.686Z,19.10
2019-05-09T08:37:12.667Z,15.93
2019-05-09T08:39:42.524Z,21.90
2019-05-09T08:42:12.807Z,12.97
2019-05-09T08:44:42.887Z,14.47
2019-05-09T08:47:12.982Z,19.27
2019-05-09T08:49:58.677Z,15.17
2019-05-09T08:52:28.840Z,13.77
2019-05-09T08:54:59.393Z,13.33
2019-05-09T08:57:29.482Z,15.17
2019-05-09T08:59:59.569Z,16.47
2019-05-09T09:02:29.650Z,23.07
2019-05-09T09:04:59.786Z,15.53
2019-05-09T09:07:29.994Z,16.53
2019-05-09T09:10:00.161Z,17.67
2019-05-09T09:12:34.390Z,21.00
2019-05-09T09:15:02.096Z,19.60
2019-05-09T09:17:32.277Z,18.07
2019-05-09T09:20:02.426Z,16.23
2019-05-09T09:22:32.506Z,18.23
2019-05-09T09:25:02.617Z,19.33
2019-05-09T09:27:33.590Z,15.00
2019-05-09T09:30:17.832Z,15.90
2019-05-09T09:32:38.547Z,16.17
2019-05-09T09:35:08.103Z,13.37
2019-05-09T09:37:48.508Z,13.70
2019-05-09T09:40:10.163Z,14.83
2019-05-09T09:42:41.348Z,13.97
2019-05-09T09:45:11.534Z,15.67
2019-05-09T09:47:41.608Z,13.90
2019-05-09T09:50:12.297Z,14.00
2019-05-09T09:52:42.378Z,14.27
2019-05-09T09:55:12.679Z,15.47
2019-05-09T09:57:42.768Z,15.20
2019-05-09T10:00:20.969Z,17.03
2019-05-09T10:02:51.452Z,19.47
2019-05-09T10:05:21.553Z,21.30
2019-05-09T10:07:51.637Z,15.47
2019-05-09T10:10:33.161Z,16.77
2019-05-09T10:13:04.186Z,15.67
2019-05-09T10:15:39.152Z,16.33
2019-05-09T10:18:18.256Z,15.97
2019-05-09T10:20:58.457Z,17.10
2019-05-09T10:23:28.088Z,16.90
2019-05-09T10:25:58.349Z,18.20
2019-05-09T10:28:30.044Z,21.93
2019-05-09T10:31:00.593Z,28.80
2019-05-09T10:33:30.947Z,17.97
2019-05-09T10:36:04.528Z,16.63
2019-05-09T10:38:32.786Z,15.67
2019-05-09T10:41:02.898Z,14.83
2019-05-09T10:43:49.688Z,14.00
2019-05-09T10:46:48.322Z,15.10
2019-05-09T10:49:04.581Z,14.63
2019-05-09T10:51:34.675Z,16.07
2019-05-09T10:54:04.826Z,18.07
2019-05-09T10:56:34.930Z,17.03
2019-05-09T10:59:04.979Z,17.77
2019-05-09T11:01:35.074Z,14.57
2019-05-09T11:04:07.915Z,14.97
2019-05-09T11:06:38.282Z,14.43
2019-05-09T11:09:10.180Z,16.87
2019-05-09T11:11:40.444Z,13.53
2019-05-09T11:14:10.547Z,12.83
2019-05-09T11:16:46.158Z,13.50
2019-05-09T11:19:12.447Z,14.40
2019-05-09T11:21:42.490Z,13.00
2019-05-09T11:24:12.596Z,12.97
2019-05-09T11:26:42.617Z,13.30
2019-05-09T11:29:12.702Z,13.17
2019-05-09T11:31:42.778Z,18.90
2019-05-09T11:34:13.075Z,23.50
2019-05-09T11:36:43.277Z,19.60
2019-05-09T11:39:13.353Z,15.87
2019-05-09T11:41:43.451Z,14.63
2019-05-09T11:44:13.523Z,14.20
2019-05-09T11:46:43.602Z,13.30
2019-05-09T11:49:13.701Z,12.00
2019-05-09T11:51:43.787Z,11.97
2019-05-09T11:54:16.587Z,13.37
2019-05-09T11:56:48.012Z,13.73
2019-05-09T11:59:18.866Z,13.63
2019-05-09T12:01:49.296Z,12.60
2019-05-09T12:04:19.781Z,13.90
2019-05-09T12:06:49.868Z,13.23
2019-05-09T12:09:19.972Z,14.60
2019-05-09T12:11:50.023Z,12.30
2019-05-09T12:14:20.133Z,11.63
2019-05-09T12:16:50.216Z,14.60
2019-05-09T12:19:20.254Z,16.07
2019-05-09T12:21:50.347Z,13.20
2019-05-09T12:24:20.404Z,12.17
2019-05-09T12:26:50.505Z,10.47
2019-05-09T12:29:20.568Z,12.00
2019-05-09T12:31:50.664Z,12.77
2019-05-09T12:34:20.783Z,9.70
2019-05-09T12:36:50.898Z,13.40
2019-05-09T12:39:20.937Z,14.37
2019-05-09T12:41:51.069Z,16.13
2019-05-09T12:44:24.774Z,13.20
2019-05-09T12:46:52.925Z,14.43
2019-05-09T12:49:22.984Z,16.60
2019-05-09T12:51:53.103Z,18.13
2019-05-09T12:54:23.147Z,15.83
2019-05-09T12:56:53.254Z,10.07
2019-05-09T12:59:23.295Z,14.50
2019-05-09T13:01:53.389Z,13.83
2019-05-09T13:04:23.445Z,10.20
2019-05-09T13:06:53.558Z,11.13
2019-05-09T13:09:23.613Z,19.70
2019-05-09T13:11:53.717Z,16.33
2019-05-09T13:14:23.770Z,20.93
2019-05-09T13:16:57.421Z,18.77
2019-05-09T13:19:31.741Z,11.37
2019-05-09T13:22:01.858Z,14.67
2019-05-09T13:24:31.910Z,10.07
2019-05-09T13:27:02.028Z,9.80
2019-05-09T13:29:32.075Z,12.93
2019-05-09T13:32:02.180Z,12.93
2019-05-09T13:34:32.218Z,13.83
2019-05-09T13:37:02.319Z,13.10
2019-05-09T13:39:32.403Z,9.07
2019-05-09T13:42:02.540Z,9.47
2019-05-09T13:44:32.815Z,15.30
2019-05-09T13:47:02.988Z,10.67
2019-05-09T13:49:33.093Z,26.33
2019-05-09T13:52:05.044Z,27.57
2019-05-09T13:54:34.975Z,10.27
2019-05-09T13:57:05.224Z,9.33
2019-05-09T13:59:37.315Z,11.10
2019-05-09T14:02:07.174Z,10.30
2019-05-09T14:04:39.555Z,9.53
2019-05-09T14:07:09.536Z,9.97
2019-05-09T14:09:39.721Z,9.77
2019-05-09T14:12:10.570Z,9.47
2019-05-09T14:14:40.749Z,9.60
2019-05-09T14:17:13.777Z,9.07
2019-05-09T14:19:46.720Z,12.03
2019-05-09T14:22:14.554Z,10.50
2019-05-09T14:24:44.585Z,9.40
2019-05-09T14:27:14.701Z,9.10
2019-05-09T14:29:44.739Z,9.87
2019-05-09T14:32:14.846Z,9.13
2019-05-09T14:34:44.885Z,10.43
2019-05-09T14:37:14.983Z,10.60
2019-05-09T14:39:55.826Z,9.60
2019-05-09T14:42:18.901Z,10.33
2019-05-09T14:44:48.590Z,9.40
2019-05-09T14:47:18.889Z,11.17
2019-05-09T14:49:50.563Z,15.07
2019-05-09T14:52:23.539Z,11.87
2019-05-09T14:54:53.595Z,10.67
2019-05-09T14:57:28.652Z,9.90
2019-05-09T14:59:58.714Z,10.87
2019-05-09T15:02:28.818Z,22.87
2019-05-09T15:04:59.409Z,11.60
2019-05-09T15:07:29.654Z,13.93
2019-05-09T15:10:00.025Z,10.57
2019-05-09T15:12:30.283Z,13.33
2019-05-09T15:15:00.493Z,18.67
2019-05-09T15:17:30.718Z,14.43
2019-05-09T15:23:08.869Z,12.30
2019-05-09T15:25:48.089Z,12.57
2019-05-09T15:34:18.391Z,11.37
2019-05-09T15:36:48.426Z,10.90
2019-05-09T15:39:18.742Z,12.47
2019-05-09T15:41:48.829Z,11.90
2019-05-09T15:44:18.946Z,10.43
2019-05-09T15:46:53.399Z,11.63
2019-05-09T15:49:23.599Z,11.73
2019-05-09T15:51:53.908Z,11.83
2019-05-09T15:54:24.050Z,10.93
2019-05-09T15:56:54.143Z,12.57
2019-05-09T15:59:38.922Z,12.90
2019-05-09T16:02:04.992Z,11.57
2019-05-09T16:04:35.218Z,13.33
2019-05-09T16:07:05.297Z,12.53
2019-05-09T16:09:37.774Z,12.70
2019-05-09T16:12:07.817Z,12.93
2019-05-09T16:14:38.203Z,14.97
2019-05-09T16:17:08.474Z,12.80
2019-05-09T16:19:38.594Z,15.17
2019-05-09T16:22:08.681Z,14.77
2019-05-09T16:24:38.858Z,11.60
2019-05-09T16:27:08.962Z,12.43
2019-05-09T16:29:39.069Z,11.50
2019-05-09T16:32:09.204Z,106.83
2019-05-09T16:34:39.310Z,146.93
2019-05-09T16:37:09.390Z,54.83
2019-05-09T16:39:39.483Z,27.33
2019-05-09T16:42:09.589Z,29.60
2019-05-09T16:44:41.721Z,26.77
2019-05-09T16:47:11.496Z,76.10
2019-05-09T16:49:41.639Z,130.80
2019-05-09T16:52:11.716Z,72.67
2019-05-09T16:54:43.397Z,28.83
2019-05-09T16:57:13.492Z,28.73
2019-05-09T16:59:43.608Z,18.30
2019-05-09T17:02:21.375Z,45.70
2019-05-09T17:04:45.574Z,73.77
2019-05-09T17:07:17.926Z,83.30
2019-05-09T17:09:48.464Z,61.37
2019-05-09T17:12:18.787Z,56.43
2019-05-09T17:14:51.011Z,26.47
2019-05-09T17:17:23.626Z,64.27
2019-05-09T17:19:57.291Z,45.10
2019-05-09T17:22:47.407Z,78.60
2019-05-09T17:25:18.861Z,44.53
2019-05-09T17:27:49.761Z,42.33
2019-05-09T17:30:19.860Z,24.37
2019-05-09T17:32:54.194Z,26.73
2019-05-09T17:35:27.893Z,16.80
2019-05-09T17:37:58.617Z,23.60
2019-05-09T17:40:29.279Z,33.73
2019-05-09T17:43:01.936Z,22.00
2019-05-09T17:45:33.617Z,27.07
2019-05-09T17:48:04.313Z,18.13
2019-05-09T17:50:38.087Z,15.03
2019-05-09T17:53:12.354Z,25.17
2019-05-09T17:55:44.347Z,30.83
2019-05-09T17:58:29.101Z,35.97
2019-05-09T18:00:50.177Z,17.70
2019-05-09T18:03:21.165Z,56.47
2019-05-09T18:05:57.482Z,19.27
2019-05-09T18:08:28.339Z,21.87
2019-05-09T18:10:58.985Z,19.10
2019-05-09T18:13:31.797Z,23.37
2019-05-09T18:16:03.456Z,23.47
2019-05-09T18:18:34.863Z,21.23
2019-05-09T18:21:05.642Z,37.63
2019-05-09T18:26:59.826Z,29.57
2019-05-09T18:29:31.071Z,32.47
2019-05-09T18:34:53.722Z,22.60
2019-05-09T18:37:24.851Z,23.33
2019-05-09T18:40:01.737Z,46.53
2019-05-09T18:42:31.407Z,44.37
2019-05-09T18:45:17.550Z,37.53
2019-05-09T18:54:53.008Z,55.93
2019-05-09T18:57:24.992Z,42.77
2019-05-09T18:59:55.516Z,27.40
2019-05-09T19:02:26.880Z,24.30
2019-05-09T19:04:58.264Z,24.77
2019-05-09T19:07:30.397Z,38.67
2019-05-09T19:10:01.954Z,36.23
2019-05-09T19:12:32.597Z,38.00
2019-05-09T19:15:04.818Z,37.63
2019-05-09T19:17:45.185Z,45.83
2019-05-09T19:20:23.299Z,37.87
2019-05-09T19:22:53.702Z,37.70
2019-05-09T19:25:24.005Z,51.17
2019-05-09T19:27:54.089Z,57.43
2019-05-09T19:30:35.402Z,45.63
2019-05-09T19:33:02.806Z,37.77
2019-05-09T19:35:31.637Z,34.83
2019-05-09T19:38:01.990Z,32.70
2019-05-09T19:40:32.324Z,33.13
2019-05-09T19:43:02.704Z,29.97
2019-05-09T19:49:38.321Z,34.27
2019-05-09T20:02:35.336Z,39.67
2019-05-09T20:05:15.301Z,42.33
2019-05-09T20:19:13.570Z,51.80
2019-05-09T20:33:45.305Z,41.23
2019-05-09T20:39:44.996Z,36.53
2019-05-09T20:48:39.109Z,29.10
2019-05-09T20:54:30.329Z,35.23
2019-05-09T21:03:08.203Z,34.80
2019-05-09T21:05:38.527Z,34.57
2019-05-09T21:08:08.815Z,39.83
2019-05-09T21:10:39.096Z,37.50
2019-05-09T21:13:09.382Z,37.27
2019-05-09T21:15:39.763Z,46.93
2019-05-09T21:18:10.327Z,38.87
2019-05-09T21:20:40.820Z,34.53
2019-05-09T21:23:23.972Z,36.57
2019-05-09T21:25:43.076Z,45.77
2019-05-09T21:28:13.374Z,44.93
2019-05-09T21:30:44.327Z,45.70
2019-05-09T21:33:14.638Z,43.70
2019-05-09T21:35:44.714Z,56.40
2019-05-09T21:38:14.833Z,41.07
2019-05-09T21:40:45.219Z,52.43
2019-05-09T21:43:15.329Z,29.67
2019-05-09T21:45:45.415Z,38.80
2019-05-09T21:48:15.529Z,31.10
2019-05-09T21:50:45.607Z,37.77
2019-05-09T21:53:15.714Z,32.53
2019-05-09T21:55:45.841Z,24.60
2019-05-09T21:58:16.001Z,32.57
2019-05-09T22:00:48.992Z,29.10
2019-05-09T22:03:19.397Z,24.20
2019-05-09T22:05:49.571Z,20.10
2019-05-09T22:08:19.683Z,25.67
2019-05-09T22:10:49.754Z,27.43
2019-05-09T22:13:19.851Z,26.97
2019-05-09T22:15:50.076Z,27.17
2019-05-09T22:18:20.202Z,24.00
2019-05-09T22:20:50.257Z,25.17
2019-05-09T22:23:20.361Z,15.57
2019-05-09T22:25:50.419Z,15.73
2019-05-09T22:28:20.536Z,18.37
2019-05-09T22:30:50.604Z,18.27
2019-05-09T22:33:20.805Z,21.60
2019-05-09T22:35:50.878Z,24.80
2019-05-09T22:38:21.007Z,21.67
2019-05-09T22:40:51.090Z,22.53
2019-05-09T22:43:21.183Z,26.93
2019-05-09T22:45:51.570Z,26.43
2019-05-09T22:48:21.669Z,26.30
2019-05-09T22:50:51.712Z,25.67
2019-05-09T22:53:21.818Z,24.53
2019-05-09T22:55:51.850Z,24.53
2019-05-09T22:58:22.054Z,24.67
2019-05-09T23:00:52.090Z,22.90
2019-05-09T23:03:22.184Z,22.80
2019-05-09T23:05:52.261Z,22.83
2019-05-09T23:08:22.375Z,24.37
2019-05-09T23:10:53.583Z,23.17
2019-05-09T23:13:23.926Z,19.13
2019-05-09T23:15:54.007Z,20.57
2019-05-09T23:18:24.101Z,20.73
2019-05-09T23:20:55.275Z,19.87
2019-05-09T23:23:32.781Z,21.17
2019-05-09T23:26:02.843Z,20.47
2019-05-09T23:28:32.931Z,22.87
2019-05-09T23:31:04.568Z,22.60
2019-05-09T23:33:36.246Z,24.63
2019-05-09T23:36:06.320Z,23.33
2019-05-09T23:38:38.002Z,22.17
2019-05-09T23:41:08.249Z,23.17
2019-05-09T23:43:38.357Z,23.90
2019-05-09T23:46:08.433Z,26.13
2019-05-09T23:48:38.461Z,24.80
2019-05-09T23:51:08.546Z,23.13
2019-05-09T23:53:38.948Z,21.90
2019-05-09T23:56:26.760Z,21.60
2019-05-09T23:59:14.624Z,22.77
